createdAt,value
2023-04-07T00:01:54.006Z,7.60
2023-04-07T00:04:22.224Z,7.50
2023-04-07T00:06:50.409Z,7.60
2023-04-07T00:09:18.226Z,7.60
2023-04-07T00:11:48.908Z,7.60
2023-04-07T00:14:16.728Z,7.60
2023-04-07T00:16:44.553Z,7.60
2023-04-07T00:19:12.430Z,7.60
2023-04-07T00:21:40.995Z,7.60
2023-04-07T00:24:09.001Z,7.50
2023-04-07T00:26:36.932Z,7.50
2023-04-07T00:29:06.097Z,7.50
2023-04-07T00:31:33.969Z,7.40
2023-04-07T00:34:01.868Z,7.40
2023-04-07T00:36:29.819Z,7.40
2023-04-07T00:38:57.706Z,7.40
2023-04-07T00:41:25.648Z,7.40
2023-04-07T00:43:53.880Z,7.30
2023-04-07T00:46:24.482Z,7.30
2023-04-07T00:48:52.403Z,7.30
2023-04-07T00:51:22.138Z,7.30
2023-04-07T00:53:50.307Z,7.30
2023-04-07T00:56:18.155Z,7.30
2023-04-07T00:58:46.027Z,7.30
2023-04-07T01:01:17.750Z,7.40
2023-04-07T01:03:54.446Z,7.40
2023-04-07T01:06:27.791Z,7.30
2023-04-07T01:09:01.814Z,7.30
2023-04-07T01:11:36.809Z,7.30
2023-04-07T01:14:05.305Z,7.30
2023-04-07T01:16:37.002Z,7.30
2023-04-07T01:19:16.757Z,7.30
2023-04-07T01:21:45.880Z,7.30
2023-04-07T01:24:33.121Z,7.30
2023-04-07T01:27:14.244Z,7.30
2023-04-07T01:29:47.920Z,7.30
2023-04-07T01:32:16.798Z,7.30
2023-04-07T01:34:46.801Z,7.30
2023-04-07T01:37:15.207Z,7.30
2023-04-07T01:39:43.401Z,7.30
2023-04-07T01:42:12.651Z,7.40
2023-04-07T01:44:40.959Z,7.30
2023-04-07T01:47:11.152Z,7.30
2023-04-07T01:49:39.962Z,7.30
2023-04-07T01:52:08.920Z,7.30
2023-04-07T01:54:37.910Z,7.30
2023-04-07T01:57:05.882Z,7.30
2023-04-07T01:59:34.015Z,7.30
2023-04-07T02:02:02.003Z,7.30
2023-04-07T02:04:37.138Z,7.30
2023-04-07T02:07:12.758Z,7.30
2023-04-07T02:09:43.408Z,7.20
2023-04-07T02:12:14.573Z,7.20
2023-04-07T02:14:43.206Z,7.10
2023-04-07T02:17:12.406Z,7.10
2023-04-07T02:19:43.549Z,7.10
2023-04-07T02:22:12.296Z,7.00
2023-04-07T02:24:42.723Z,7.00
2023-04-07T02:27:10.598Z,7.00
2023-04-07T02:29:38.465Z,7.00
2023-04-07T02:32:07.368Z,7.00
2023-04-07T02:34:35.499Z,7.00
2023-04-07T02:37:04.779Z,7.00
2023-04-07T02:39:32.681Z,7.00
2023-04-07T02:42:00.500Z,7.00
2023-04-07T02:44:28.626Z,7.00
2023-04-07T02:46:56.578Z,6.90
2023-04-07T02:49:24.533Z,6.80
2023-04-07T02:51:52.390Z,6.70
2023-04-07T02:54:21.566Z,6.70
2023-04-07T02:56:49.377Z,6.70
2023-04-07T02:59:17.265Z,6.60
2023-04-07T03:01:45.437Z,6.60
2023-04-07T03:04:13.422Z,6.60
2023-04-07T03:06:41.432Z,6.60
2023-04-07T03:09:09.312Z,6.70
2023-04-07T03:11:38.547Z,6.70
2023-04-07T03:14:06.470Z,6.70
2023-04-07T03:16:34.685Z,6.70
2023-04-07T03:19:02.675Z,6.70
2023-04-07T03:21:31.888Z,6.70
2023-04-07T03:23:59.779Z,6.70
2023-04-07T03:26:27.687Z,6.70
2023-04-07T03:28:56.846Z,6.80
2023-04-07T03:31:24.799Z,6.80
2023-04-07T03:33:53.191Z,6.80
2023-04-07T03:36:21.180Z,6.90
2023-04-07T03:38:49.493Z,6.90
2023-04-07T03:41:17.313Z,6.90
2023-04-07T03:43:45.354Z,6.90
2023-04-07T03:46:14.858Z,6.90
2023-04-07T03:48:42.865Z,6.90
2023-04-07T03:51:10.983Z,7.00
2023-04-07T03:53:38.941Z,7.00
2023-04-07T03:56:07.172Z,7.00
2023-04-07T03:58:35.087Z,6.90
2023-04-07T04:01:03.088Z,6.80
2023-04-07T04:03:32.351Z,6.80
2023-04-07T04:06:00.382Z,6.80
2023-04-07T04:08:28.320Z,6.80
2023-04-07T04:10:56.149Z,6.80
2023-04-07T04:13:24.135Z,6.90
2023-04-07T04:15:52.466Z,6.90
2023-04-07T04:18:20.807Z,7.00
2023-04-07T04:20:50.076Z,7.10
2023-04-07T04:23:17.959Z,7.10
2023-04-07T04:25:45.844Z,7.10
2023-04-07T04:28:13.735Z,7.10
2023-04-07T04:30:41.550Z,7.10
2023-04-07T04:33:09.454Z,7.10
2023-04-07T04:35:37.272Z,7.10
2023-04-07T04:38:06.438Z,7.10
2023-04-07T04:40:34.268Z,7.00
2023-04-07T04:43:06.870Z,7.10
2023-04-07T04:45:34.945Z,7.00
2023-04-07T04:48:02.859Z,7.00
2023-04-07T04:50:30.760Z,7.00
2023-04-07T04:52:58.565Z,6.90
2023-04-07T04:55:27.775Z,7.00
2023-04-07T04:57:56.001Z,6.90
2023-04-07T05:00:24.175Z,6.90
2023-04-07T05:02:52.615Z,7.00
2023-04-07T05:05:20.857Z,7.00
2023-04-07T05:07:48.748Z,7.00
2023-04-07T05:10:16.676Z,7.00
2023-04-07T05:12:45.916Z,7.00
2023-04-07T05:15:15.170Z,6.90
2023-04-07T05:17:43.165Z,6.90
2023-04-07T05:20:11.911Z,7.00
2023-04-07T05:22:39.871Z,7.10
2023-04-07T05:25:08.697Z,7.00
2023-04-07T05:27:36.555Z,7.10
2023-04-07T05:30:06.963Z,7.10
2023-04-07T05:32:34.949Z,7.00
2023-04-07T05:35:02.830Z,7.00
2023-04-07T05:37:30.826Z,7.00
2023-04-07T05:39:58.662Z,6.90
2023-04-07T05:42:26.782Z,6.90
2023-04-07T05:44:54.646Z,6.90
2023-04-07T05:47:23.858Z,6.90
2023-04-07T05:49:51.750Z,6.90
2023-04-07T05:52:19.594Z,6.90
2023-04-07T05:54:47.948Z,6.90
2023-04-07T05:57:15.842Z,6.90
2023-04-07T05:59:43.675Z,6.80
2023-04-07T06:02:11.623Z,6.90
2023-04-07T06:04:40.962Z,7.00
2023-04-07T06:07:08.850Z,7.00
2023-04-07T06:09:36.686Z,7.20
2023-04-07T06:12:07.087Z,7.30
2023-04-07T06:14:34.956Z,7.30
2023-04-07T06:17:03.215Z,7.20
2023-04-07T06:19:31.206Z,7.20
2023-04-07T06:22:00.544Z,7.20
2023-04-07T06:24:28.601Z,7.20
2023-04-07T06:26:57.014Z,7.20
2023-04-07T06:29:24.976Z,7.20
2023-04-07T06:31:52.857Z,7.20
2023-04-07T06:34:20.791Z,7.30
2023-04-07T06:36:48.852Z,7.30
2023-04-07T06:39:18.141Z,7.30
2023-04-07T06:41:46.941Z,7.30
2023-04-07T06:44:14.818Z,7.30
2023-04-07T06:46:44.363Z,7.30
2023-04-07T06:49:12.335Z,7.30
2023-04-07T06:51:40.255Z,7.30
2023-04-07T06:54:12.750Z,7.30
2023-04-07T06:56:42.236Z,7.30
2023-04-07T06:59:10.399Z,7.30
2023-04-07T07:01:38.767Z,7.30
2023-04-07T07:04:07.057Z,7.30
2023-04-07T07:06:35.157Z,7.40
2023-04-07T07:09:03.157Z,7.40
2023-04-07T07:11:31.194Z,7.60
2023-04-07T07:14:00.380Z,7.80
2023-04-07T07:16:28.930Z,8.00
2023-04-07T07:18:56.867Z,8.10
2023-04-07T07:21:24.806Z,8.30
2023-04-07T07:23:52.650Z,8.40
2023-04-07T07:26:20.799Z,8.70
2023-04-07T07:28:48.713Z,8.80
2023-04-07T07:31:18.765Z,9.00
2023-04-07T07:33:49.380Z,9.20
2023-04-07T07:36:17.508Z,9.30
2023-04-07T07:38:45.454Z,9.30
2023-04-07T07:41:13.323Z,9.40
2023-04-07T07:43:41.201Z,9.50
2023-04-07T07:46:09.106Z,9.70
2023-04-07T07:48:38.357Z,9.90
2023-04-07T07:51:06.656Z,10.00
2023-04-07T07:53:34.510Z,10.10
2023-04-07T07:56:02.591Z,10.30
2023-04-07T07:58:30.485Z,10.40
2023-04-07T08:00:58.355Z,10.50
2023-04-07T08:03:26.366Z,10.70
2023-04-07T08:05:56.067Z,10.80
2023-04-07T08:08:23.980Z,10.90
2023-04-07T08:10:51.802Z,11.10
2023-04-07T08:13:19.664Z,11.30
2023-04-07T08:15:47.631Z,11.60
2023-04-07T08:18:15.694Z,11.90
2023-04-07T08:20:43.601Z,12.20
2023-04-07T08:23:14.171Z,12.40
2023-04-07T08:25:42.045Z,12.40
2023-04-07T08:28:10.080Z,12.30
2023-04-07T08:30:38.062Z,12.20
2023-04-07T08:33:07.747Z,12.30
2023-04-07T08:35:35.885Z,12.30
2023-04-07T08:38:04.064Z,12.40
2023-04-07T08:40:34.661Z,12.40
2023-04-07T08:43:07.906Z,12.40
2023-04-07T08:45:36.938Z,12.40
2023-04-07T08:48:11.048Z,12.30
2023-04-07T08:50:39.579Z,12.10
2023-04-07T08:53:10.293Z,12.00
2023-04-07T08:55:39.546Z,11.80
2023-04-07T08:58:12.276Z,11.80
2023-04-07T09:00:42.846Z,11.90
2023-04-07T09:03:11.968Z,12.20
2023-04-07T09:05:40.401Z,12.40
2023-04-07T09:08:08.317Z,12.60
2023-04-07T09:10:38.969Z,12.60
2023-04-07T09:13:07.045Z,12.60
2023-04-07T09:15:37.300Z,12.40
2023-04-07T09:18:06.769Z,12.20
2023-04-07T09:20:59.096Z,12.00
2023-04-07T09:23:32.786Z,11.90
2023-04-07T09:26:19.778Z,11.70
2023-04-07T09:28:48.936Z,11.70
2023-04-07T09:31:16.799Z,11.50
2023-04-07T09:33:46.476Z,11.60
2023-04-07T09:36:17.111Z,11.40
2023-04-07T09:38:46.731Z,11.30
2023-04-07T09:41:17.544Z,11.20
2023-04-07T09:43:47.637Z,11.10
2023-04-07T09:46:17.048Z,11.10
2023-04-07T09:48:46.627Z,11.10
2023-04-07T09:51:16.186Z,11.20
2023-04-07T09:53:46.475Z,11.40
2023-04-07T09:56:17.889Z,11.60
2023-04-07T09:58:47.573Z,11.90
2023-04-07T10:01:17.992Z,12.20
2023-04-07T10:03:48.041Z,12.50
2023-04-07T10:06:16.578Z,12.80
2023-04-07T10:08:45.124Z,13.10
2023-04-07T10:11:13.026Z,13.40
2023-04-07T10:13:43.295Z,13.90
2023-04-07T10:16:11.525Z,14.20
2023-04-07T10:18:41.413Z,14.20
2023-04-07T10:21:10.672Z,14.10
2023-04-07T10:23:59.204Z,14.60
2023-04-07T10:26:31.364Z,14.70
2023-04-07T10:29:05.351Z,14.70
2023-04-07T10:31:34.126Z,14.60
2023-04-07T10:34:02.753Z,14.30
2023-04-07T10:36:30.728Z,14.10
2023-04-07T10:39:20.788Z,14.10
2023-04-07T10:41:48.726Z,14.30
2023-04-07T10:44:50.682Z,14.30
2023-04-07T10:47:18.624Z,14.40
2023-04-07T10:50:17.938Z,14.20
2023-04-07T10:52:47.201Z,13.70
2023-04-07T10:55:32.834Z,13.60
2023-04-07T10:58:20.986Z,13.40
2023-04-07T11:01:22.781Z,13.30
2023-04-07T11:03:57.651Z,13.10
2023-04-07T11:06:26.432Z,13.00
2023-04-07T11:08:54.329Z,13.00
2023-04-07T11:11:38.799Z,12.90
2023-04-07T11:14:07.092Z,13.00
2023-04-07T11:16:39.831Z,12.80
2023-04-07T11:19:09.104Z,12.70
2023-04-07T11:21:37.750Z,12.50
2023-04-07T11:24:05.919Z,12.60
2023-04-07T11:26:39.907Z,12.50
2023-04-07T11:29:08.313Z,12.60
2023-04-07T11:31:36.263Z,12.70
2023-04-07T11:34:06.137Z,12.60
2023-04-07T11:36:39.958Z,12.60
2023-04-07T11:39:19.695Z,12.60
2023-04-07T11:41:49.373Z,12.60
2023-04-07T11:44:17.421Z,12.60
2023-04-07T11:46:54.784Z,12.50
2023-04-07T11:49:23.908Z,12.60
2023-04-07T11:52:01.737Z,12.60
2023-04-07T11:54:39.573Z,12.70
2023-04-07T11:57:10.305Z,12.70
2023-04-07T11:59:38.369Z,12.80
2023-04-07T12:02:06.724Z,12.80
2023-04-07T12:04:36.469Z,12.60
2023-04-07T12:07:10.849Z,12.50
2023-04-07T12:09:39.007Z,12.40
2023-04-07T12:12:08.674Z,12.40
2023-04-07T12:14:37.039Z,12.50
2023-04-07T12:17:04.957Z,12.50
2023-04-07T12:19:34.808Z,12.60
2023-04-07T12:22:02.936Z,12.60
2023-04-07T12:24:32.534Z,12.60
2023-04-07T12:27:00.554Z,12.60
2023-04-07T12:29:28.508Z,12.70
2023-04-07T12:31:57.499Z,12.90
2023-04-07T12:34:25.654Z,13.30
2023-04-07T12:36:53.516Z,13.70
2023-04-07T12:39:21.904Z,14.10
2023-04-07T12:41:53.209Z,14.20
2023-04-07T12:44:21.324Z,14.20
2023-04-07T12:46:49.205Z,14.10
2023-04-07T12:49:17.345Z,14.00
2023-04-07T12:51:45.913Z,14.00
2023-04-07T12:54:15.043Z,13.80
2023-04-07T12:56:42.920Z,13.80
2023-04-07T12:59:12.269Z,13.70
2023-04-07T13:01:40.393Z,13.60
2023-04-07T13:04:08.427Z,13.50
2023-04-07T13:06:36.356Z,13.60
2023-04-07T13:09:04.336Z,13.40
2023-04-07T13:11:32.238Z,13.30
2023-04-07T13:14:01.359Z,13.20
2023-04-07T13:16:31.710Z,13.00
2023-04-07T13:18:59.576Z,12.90
2023-04-07T13:21:45.543Z,12.70
2023-04-07T13:24:15.060Z,12.60
2023-04-07T13:26:43.117Z,12.40
2023-04-07T13:29:10.989Z,12.30
2023-04-07T13:31:40.412Z,12.00
2023-04-07T13:34:08.597Z,11.90
2023-04-07T13:36:36.519Z,11.70
2023-04-07T13:39:04.525Z,11.50
2023-04-07T13:41:32.946Z,11.40
2023-04-07T13:44:01.789Z,11.40
2023-04-07T13:46:29.902Z,11.30
2023-04-07T13:48:59.244Z,11.20
2023-04-07T13:51:28.091Z,11.10
2023-04-07T13:53:56.160Z,11.10
2023-04-07T13:56:24.847Z,11.20
2023-04-07T13:58:52.786Z,11.20
2023-04-07T14:01:20.668Z,11.30
2023-04-07T14:03:49.741Z,11.40
2023-04-07T14:06:22.513Z,11.50
2023-04-07T14:08:50.389Z,11.60
2023-04-07T14:11:18.790Z,11.70
2023-04-07T14:13:46.954Z,11.80
2023-04-07T14:16:15.036Z,11.80
2023-04-07T14:18:43.143Z,11.80
2023-04-07T14:21:11.203Z,11.90
2023-04-07T14:23:40.494Z,12.00
2023-04-07T14:26:11.605Z,12.20
2023-04-07T14:28:39.555Z,12.30
2023-04-07T14:31:07.606Z,12.20
2023-04-07T14:33:35.506Z,11.90
2023-04-07T14:36:03.341Z,11.70
2023-04-07T14:38:31.997Z,11.50
2023-04-07T14:43:35.568Z,11.30
2023-04-07T14:46:03.523Z,11.40
2023-04-07T14:48:32.588Z,11.30
2023-04-07T14:51:09.207Z,11.30
2023-04-07T14:53:38.081Z,11.30
2023-04-07T14:56:07.871Z,11.30
2023-04-07T14:58:37.415Z,11.30
2023-04-07T15:01:06.501Z,11.30
2023-04-07T15:03:35.619Z,11.20
2023-04-07T15:06:07.232Z,11.20
2023-04-07T15:08:35.137Z,11.20
2023-04-07T15:11:07.420Z,11.20
2023-04-07T15:13:36.139Z,11.20
2023-04-07T15:16:09.143Z,11.30
2023-04-07T15:18:38.590Z,11.30
2023-04-07T15:21:06.680Z,11.30
2023-04-07T15:23:34.878Z,11.30
2023-04-07T15:26:02.738Z,11.30
2023-04-07T15:28:32.112Z,11.20
2023-04-07T15:31:01.051Z,11.20
2023-04-07T15:33:29.301Z,11.20
2023-04-07T15:35:57.930Z,11.30
2023-04-07T15:38:25.992Z,11.40
2023-04-07T15:40:53.745Z,11.50
2023-04-07T15:43:21.551Z,11.60
2023-04-07T15:45:51.334Z,11.60
2023-04-07T15:48:19.483Z,11.70
2023-04-07T15:50:47.872Z,11.80
2023-04-07T15:53:15.804Z,11.80
2023-04-07T15:55:44.652Z,11.70
2023-04-07T15:58:12.601Z,11.60
2023-04-07T16:00:40.911Z,11.60
2023-04-07T16:03:10.306Z,11.50
2023-04-07T16:05:39.127Z,11.40
2023-04-07T16:08:07.113Z,11.30
2023-04-07T16:10:34.972Z,11.30
2023-04-07T16:13:02.864Z,11.30
2023-04-07T16:15:39.988Z,11.30
2023-04-07T16:18:11.567Z,11.20
2023-04-07T16:20:39.809Z,11.20
2023-04-07T16:23:07.687Z,11.10
2023-04-07T16:25:36.157Z,11.20
2023-04-07T16:28:04.351Z,11.20
2023-04-07T16:30:32.304Z,11.20
2023-04-07T16:33:01.496Z,11.20
2023-04-07T16:35:31.856Z,11.30
2023-04-07T16:38:03.882Z,11.40
2023-04-07T16:40:31.867Z,11.40
2023-04-07T16:42:59.788Z,11.40
2023-04-07T16:45:27.724Z,11.50
2023-04-07T16:47:55.743Z,11.50
2023-04-07T16:50:23.850Z,11.60
2023-04-07T16:52:54.799Z,11.50
2023-04-07T16:55:22.952Z,11.40
2023-04-07T16:57:50.981Z,11.40
2023-04-07T17:00:20.120Z,11.40
2023-04-07T17:02:48.217Z,11.30
2023-04-07T17:05:17.289Z,11.40
2023-04-07T17:07:45.138Z,11.40
2023-04-07T17:10:15.050Z,11.40
2023-04-07T17:12:42.880Z,11.40
2023-04-07T17:15:11.730Z,11.30
2023-04-07T17:17:39.638Z,11.30
2023-04-07T17:20:08.884Z,11.20
2023-04-07T17:22:37.519Z,11.20
2023-04-07T17:25:06.635Z,11.10
2023-04-07T17:27:36.249Z,11.00
2023-04-07T17:30:05.411Z,11.00
2023-04-07T17:32:33.335Z,10.90
2023-04-07T17:35:01.302Z,10.90
2023-04-07T17:37:29.270Z,10.80
2023-04-07T17:39:57.176Z,10.70
2023-04-07T17:42:25.240Z,10.70
2023-04-07T17:44:54.833Z,10.60
2023-04-07T17:47:22.837Z,10.60
2023-04-07T17:49:50.952Z,10.50
2023-04-07T17:52:18.819Z,10.50
2023-04-07T17:54:47.233Z,10.40
2023-04-07T17:57:15.922Z,10.40
2023-04-07T17:59:43.886Z,10.40
2023-04-07T18:02:13.278Z,10.30
2023-04-07T18:04:41.447Z,10.30
2023-04-07T18:07:09.651Z,10.20
2023-04-07T18:09:37.624Z,10.20
2023-04-07T18:12:06.294Z,10.10
2023-04-07T18:14:34.148Z,10.10
2023-04-07T18:17:02.002Z,10.00
2023-04-07T18:19:31.167Z,10.00
2023-04-07T18:22:00.019Z,9.90
2023-04-07T18:24:28.143Z,9.90
2023-04-07T18:26:56.712Z,9.80
2023-04-07T18:29:24.555Z,9.80
2023-04-07T18:31:52.577Z,9.80
2023-04-07T18:34:20.681Z,9.70
2023-04-07T18:36:49.963Z,9.70
2023-04-07T18:39:17.810Z,9.60
2023-04-07T18:41:47.359Z,9.60
2023-04-07T18:44:15.849Z,9.60
2023-04-07T18:46:43.692Z,9.60
2023-04-07T18:49:11.507Z,9.50
2023-04-07T18:51:39.550Z,9.50
2023-04-07T18:54:08.766Z,9.50
2023-04-07T18:56:36.637Z,9.40
2023-04-07T18:59:04.556Z,9.40
2023-04-07T19:01:32.498Z,9.30
2023-04-07T19:04:01.396Z,9.30
2023-04-07T19:06:30.323Z,9.30
2023-04-07T19:08:58.154Z,9.20
2023-04-07T19:11:27.339Z,9.20
2023-04-07T19:13:56.346Z,9.20
2023-04-07T19:16:24.832Z,9.20
2023-04-07T19:18:53.133Z,9.20
2023-04-07T19:21:21.244Z,9.10
2023-04-07T19:23:49.360Z,9.20
2023-04-07T19:26:17.748Z,9.10
2023-04-07T19:28:48.540Z,9.10
2023-04-07T19:31:16.639Z,9.10
2023-04-07T19:33:44.635Z,9.10
2023-04-07T19:36:13.020Z,9.10
2023-04-07T19:38:42.588Z,9.10
2023-04-07T19:41:11.162Z,9.10
2023-04-07T19:43:39.061Z,9.10
2023-04-07T19:46:09.181Z,9.10
2023-04-07T19:48:37.061Z,9.10
2023-04-07T19:51:07.122Z,9.10
2023-04-07T19:53:35.437Z,9.10
2023-04-07T19:56:04.793Z,9.10
2023-04-07T19:58:34.357Z,9.10
2023-04-07T20:01:04.161Z,9.10
2023-04-07T20:03:34.730Z,9.10
2023-04-07T20:06:03.580Z,9.00
2023-04-07T20:08:31.495Z,9.00
2023-04-07T20:10:59.344Z,9.00
2023-04-07T20:13:28.045Z,9.00
2023-04-07T20:15:55.910Z,9.10
2023-04-07T20:18:23.749Z,9.00
2023-04-07T20:20:59.709Z,9.00
2023-04-07T20:23:27.870Z,9.00
2023-04-07T20:25:56.375Z,9.00
2023-04-07T20:28:24.330Z,9.00
2023-04-07T20:30:52.387Z,9.00
2023-04-07T20:33:20.401Z,9.00
2023-04-07T20:35:49.299Z,8.90
2023-04-07T20:38:18.959Z,8.90
2023-04-07T20:40:46.854Z,8.80
2023-04-07T20:43:17.885Z,8.80
2023-04-07T20:45:46.954Z,8.80
2023-04-07T20:48:15.653Z,8.70
2023-04-07T20:50:43.610Z,8.70
2023-04-07T20:53:11.465Z,8.70
2023-04-07T20:55:41.206Z,8.70
2023-04-07T20:58:09.119Z,8.60
2023-04-07T21:00:37.233Z,8.60
2023-04-07T21:03:05.220Z,8.60
2023-04-07T21:05:33.460Z,8.60
2023-04-07T21:08:01.337Z,8.50
2023-04-07T21:10:29.341Z,8.50
2023-04-07T21:12:58.684Z,8.50
2023-04-07T21:15:26.614Z,8.50
2023-04-07T21:17:54.521Z,8.40
2023-04-07T21:20:22.427Z,8.40
2023-04-07T21:22:50.315Z,8.40
2023-04-07T21:25:18.401Z,8.40
2023-04-07T21:27:46.255Z,8.30
2023-04-07T21:30:16.636Z,8.30
2023-04-07T21:32:46.653Z,8.30
2023-04-07T21:35:14.501Z,8.20
2023-04-07T21:37:42.418Z,8.20
2023-04-07T21:40:11.001Z,8.10
2023-04-07T21:42:38.998Z,8.10
2023-04-07T21:45:08.372Z,8.00
2023-04-07T21:47:37.599Z,8.00
2023-04-07T21:50:06.490Z,7.90
2023-04-07T21:52:34.323Z,7.90
2023-04-07T21:55:02.396Z,7.80
2023-04-07T21:57:30.670Z,7.80
2023-04-07T21:59:58.554Z,7.80
2023-04-07T22:02:27.265Z,7.80
2023-04-07T22:04:56.644Z,7.80
2023-04-07T22:07:24.652Z,7.80
2023-04-07T22:09:52.478Z,7.70
2023-04-07T22:12:20.402Z,7.70
2023-04-07T22:14:48.264Z,7.70
2023-04-07T22:17:16.371Z,7.70
2023-04-07T22:19:44.269Z,7.60
2023-04-07T22:22:13.497Z,7.60
2023-04-07T22:24:41.389Z,7.60
2023-04-07T22:27:09.530Z,7.60
2023-04-07T22:29:37.427Z,7.50
2023-04-07T22:32:05.673Z,7.50
2023-04-07T22:34:33.572Z,7.50
2023-04-07T22:37:01.407Z,7.60
2023-04-07T22:39:30.856Z,7.60
2023-04-07T22:42:00.902Z,7.70
2023-04-07T22:44:28.790Z,7.70
2023-04-07T22:46:57.407Z,7.70
2023-04-07T22:49:25.501Z,7.80
2023-04-07T22:51:56.869Z,7.80
2023-04-07T22:54:24.886Z,7.90
2023-04-07T22:56:54.060Z,7.90
2023-04-07T22:59:21.934Z,8.00
2023-04-07T23:01:49.905Z,8.00
2023-04-07T23:04:18.005Z,8.00
2023-04-07T23:06:45.887Z,8.00
2023-04-07T23:24:17.514Z,8.10
2023-04-07T23:26:45.374Z,8.10
2023-04-07T23:29:13.366Z,8.10
2023-04-07T23:31:41.206Z,8.10
2023-04-07T23:34:09.064Z,8.10
2023-04-07T23:36:37.034Z,8.20
2023-04-07T23:39:04.960Z,8.20
2023-04-07T23:41:34.163Z,8.20
2023-04-07T23:44:03.760Z,8.20
2023-04-07T23:46:31.699Z,8.20
2023-04-07T23:48:59.662Z,8.20
2023-04-07T23:51:27.681Z,8.20
2023-04-07T23:53:55.723Z,8.20
2023-04-07T23:56:23.711Z,8.20
2023-04-07T23:58:52.936Z,8.20
